createdAt,value
2022-07-29T00:05:58.220Z,18.7
2022-07-29T00:15:58.550Z,18.6
2022-07-29T00:35:59.766Z,18.3
2022-07-29T00:46:00.585Z,18.2
2022-07-29T00:56:01.122Z,18.1
2022-07-29T01:06:01.910Z,18
2022-07-29T01:16:02.661Z,17.9
2022-07-29T01:36:03.617Z,17.7
2022-07-29T01:46:04.539Z,17.5
2022-07-29T01:56:04.874Z,17.4
2022-07-29T02:06:05.560Z,17.4
2022-07-29T02:16:06.148Z,17.3
2022-07-29T02:26:06.758Z,17.2
2022-07-29T02:36:07.045Z,17.1
2022-07-29T02:46:12.643Z,17.1
2022-07-29T02:56:08.033Z,17
2022-07-29T03:16:09.233Z,16.9
2022-07-29T03:26:09.314Z,16.9
2022-07-29T03:46:10.663Z,17
2022-07-29T03:56:10.920Z,17
2022-07-29T04:06:11.843Z,17.1
2022-07-29T04:16:12.222Z,17.1
2022-07-29T04:26:13.085Z,17.1
2022-07-29T04:46:14.462Z,17
2022-07-29T04:56:15.180Z,16.8
2022-07-29T05:16:16.750Z,16.4
2022-07-29T05:36:18.095Z,16.1
2022-07-29T06:06:19.601Z,16.1
2022-07-29T06:16:28.832Z,16.1
2022-07-29T06:26:26.334Z,16
2022-07-29T06:56:22.435Z,16.1
2022-07-29T07:06:23.182Z,16.2
2022-07-29T07:16:23.712Z,16.4
2022-07-29T07:26:23.962Z,16.5
2022-07-29T07:46:25.215Z,16.8
2022-07-29T07:56:25.762Z,16.9
2022-07-29T08:06:26.666Z,16.8
2022-07-29T09:06:29.921Z,17.9
2022-07-29T09:36:31.969Z,17.8
2022-07-29T09:46:32.398Z,17.8
2022-07-29T10:26:34.513Z,17.6
2022-07-29T10:36:34.993Z,17.7
2022-07-29T11:16:36.964Z,17.8
2022-07-29T11:36:38.186Z,17.7
2022-07-29T11:46:38.810Z,17.8
2022-07-29T11:56:39.876Z,18
2022-07-29T12:06:40.805Z,18.6
2022-07-29T12:16:41.675Z,20.4
2022-07-29T12:26:41.867Z,22.3
2022-07-29T12:36:42.128Z,23.8
2022-07-29T12:46:42.973Z,24.3
2022-07-29T12:56:44.260Z,24.7
2022-07-29T13:06:45.829Z,25.1
2022-07-29T13:16:44.621Z,24.5
2022-07-29T13:26:45.378Z,23.8
2022-07-29T13:36:45.844Z,23.3
2022-07-29T13:46:46.387Z,22.9
2022-07-29T13:56:46.847Z,22.9
2022-07-29T14:06:47.579Z,22.8
2022-07-29T14:16:51.968Z,22.7
2022-07-29T14:26:48.831Z,23
2022-07-29T14:36:49.924Z,24
2022-07-29T14:46:50.536Z,25
2022-07-29T14:56:50.791Z,25.7
2022-07-29T15:06:51.681Z,25.6
2022-07-29T15:16:52.676Z,24.4
2022-07-29T15:36:53.661Z,24.1
2022-07-29T15:46:54.201Z,24.4
2022-07-29T15:56:54.721Z,25.2
2022-07-29T16:06:55.995Z,25.9
2022-07-29T16:16:57.018Z,25.7
2022-07-29T16:26:57.554Z,25.9
2022-07-29T16:36:58.758Z,26.2
2022-07-29T16:46:58.710Z,26.4
2022-07-29T16:56:59.803Z,25.4
2022-07-29T17:06:59.987Z,24.5
2022-07-29T17:17:00.810Z,24
2022-07-29T17:37:01.573Z,23.6
2022-07-29T17:47:02.438Z,23.5
2022-07-29T17:57:03.266Z,23.5
2022-07-29T18:07:03.608Z,23.4
2022-07-29T18:17:04.233Z,23.2
2022-07-29T18:37:05.512Z,22.7
2022-07-29T18:47:06.193Z,22.6
2022-07-29T18:57:53.529Z,22.4
2022-07-29T19:07:07.097Z,22.2
2022-07-29T19:17:07.957Z,21.8
2022-07-29T19:27:09.031Z,21.5
2022-07-29T19:37:09.738Z,21.1
2022-07-29T19:47:10.502Z,20.8
2022-07-29T19:57:11.491Z,20.5
2022-07-29T20:07:12.307Z,20.3
2022-07-29T20:17:12.471Z,20.1
2022-07-29T20:27:13.919Z,19.9
2022-07-29T20:37:13.669Z,19.7
2022-07-29T20:47:13.825Z,19.6
2022-07-29T20:57:14.589Z,19.3
2022-07-29T21:07:15.427Z,19
2022-07-29T21:17:15.767Z,18.7
2022-07-29T21:27:21.017Z,18.4
2022-07-29T21:37:17.142Z,18.1
2022-07-29T21:47:17.909Z,18.1
2022-07-29T21:57:18.392Z,17.9
2022-07-29T22:07:19.139Z,17.8
2022-07-29T22:17:19.325Z,17.7
2022-07-29T22:27:20.025Z,17.6
2022-07-29T22:47:38.687Z,17.2
2022-07-29T22:57:22.494Z,17.1
2022-07-29T23:07:23.053Z,16.9
2022-07-29T23:17:23.771Z,16.8
2022-07-29T23:27:24.707Z,16.7
2022-07-29T23:37:26.618Z,16.5
2022-07-29T23:57:25.858Z,16.4
